Hamler, Ohio
Current Conditions -  °F | °C
As of 12:53 PM on Sunday 21 Dec 2014 (Local Time) from KDFI Reporting Station
Overcast Overcast  
Wind Chill: 27°   Ceiling: 5500
Heat Index: 34°   Visibility: 7mi
Dew Point: 25°   Wind: 8mph
Humidity: 70%   Direction: 190°S
Pressure: 30.25"   Gusts: NA
Location:  41.23°N, 84.03°W
Report Text: KDFI 211753Z AUTO 19007KT 7SM FEW017 OVC055 01/M04 A3025 RMK AO2 SLP254 T00111039 10011 21022 58019 TSNO
Loading
Personal Weather Stations






























Interactive Weather Map New forecast layout! Learn more

10-Day Weather Forecast

Advertisements
Track Severe Weather on mobile